sensor_id;sensor_type;location;lat;lon;timestamp;P1;durP1;ratioP1;P2;durP2;ratioP2
52590;SDS011;38483;42.620;25.394;2022-10-23T00:00:18;20.23;;;12.63;;
52590;SDS011;38483;42.620;25.394;2022-10-23T00:02:50;18.43;;;11.93;;
52590;SDS011;38483;42.620;25.394;2022-10-23T00:05:19;18.33;;;12.10;;
52590;SDS011;38483;42.620;25.394;2022-10-23T00:07:51;19.70;;;12.33;;
52590;SDS011;38483;42.620;25.394;2022-10-23T00:10:19;19.07;;;11.53;;
52590;SDS011;38483;42.620;25.394;2022-10-23T00:12:47;17.70;;;11.23;;
52590;SDS011;38483;42.620;25.394;2022-10-23T00:15:16;16.93;;;11.33;;
52590;SDS011;38483;42.620;25.394;2022-10-23T00:17:46;20.70;;;11.20;;
52590;SDS011;38483;42.620;25.394;2022-10-23T00:20:13;14.17;;;9.93;;
52590;SDS011;38483;42.620;25.394;2022-10-23T00:22:41;20.07;;;11.63;;
52590;SDS011;38483;42.620;25.394;2022-10-23T00:25:08;16.97;;;10.60;;
52590;SDS011;38483;42.620;25.394;2022-10-23T00:27:37;15.90;;;10.67;;
52590;SDS011;38483;42.620;25.394;2022-10-23T00:30:05;18.50;;;9.97;;
52590;SDS011;38483;42.620;25.394;2022-10-23T00:32:32;18.73;;;10.93;;
52590;SDS011;38483;42.620;25.394;2022-10-23T00:34:59;13.63;;;10.40;;
52590;SDS011;38483;42.620;25.394;2022-10-23T00:37:28;16.60;;;10.77;;
52590;SDS011;38483;42.620;25.394;2022-10-23T00:39:56;17.13;;;10.90;;
52590;SDS011;38483;42.620;25.394;2022-10-23T00:42:23;16.77;;;11.20;;
52590;SDS011;38483;42.620;25.394;2022-10-23T00:47:17;19.00;;;11.10;;
52590;SDS011;38483;42.620;25.394;2022-10-23T00:49:44;17.03;;;10.60;;
52590;SDS011;38483;42.620;25.394;2022-10-23T00:52:12;17.53;;;11.10;;
52590;SDS011;38483;42.620;25.394;2022-10-23T00:54:41;14.93;;;10.80;;
52590;SDS011;38483;42.620;25.394;2022-10-23T00:57:12;18.30;;;10.70;;
52590;SDS011;38483;42.620;25.394;2022-10-23T00:59:41;17.30;;;11.17;;
52590;SDS011;38483;42.620;25.394;2022-10-23T01:02:08;28.70;;;15.70;;
52590;SDS011;38483;42.620;25.394;2022-10-23T01:04:36;32.43;;;18.00;;
52590;SDS011;38483;42.620;25.394;2022-10-23T01:16:32;20.57;;;12.63;;
52590;SDS011;38483;42.620;25.394;2022-10-23T01:28:27;16.87;;;11.37;;
52590;SDS011;38483;42.620;25.394;2022-10-23T01:31:42;16.47;;;11.03;;
52590;SDS011;38483;42.620;25.394;2022-10-23T01:34:27;16.57;;;10.80;;
52590;SDS011;38483;42.620;25.394;2022-10-23T01:37:02;17.67;;;11.20;;
52590;SDS011;38483;42.620;25.394;2022-10-23T01:39:37;17.73;;;10.73;;
52590;SDS011;38483;42.620;25.394;2022-10-23T01:42:28;17.60;;;11.20;;
52590;SDS011;38483;42.620;25.394;2022-10-23T01:45:03;12.10;;;9.57;;
52590;SDS011;38483;42.620;25.394;2022-10-23T01:47:53;16.97;;;10.63;;
52590;SDS011;38483;42.620;25.394;2022-10-23T01:50:22;18.73;;;11.03;;
52590;SDS011;38483;42.620;25.394;2022-10-23T01:52:58;15.40;;;10.23;;
52590;SDS011;38483;42.620;25.394;2022-10-23T01:55:25;20.63;;;10.83;;
52590;SDS011;38483;42.620;25.394;2022-10-23T01:57:54;14.93;;;10.33;;
52590;SDS011;38483;42.620;25.394;2022-10-23T02:00:26;14.90;;;10.43;;
52590;SDS011;38483;42.620;25.394;2022-10-23T02:02:53;14.53;;;10.90;;
52590;SDS011;38483;42.620;25.394;2022-10-23T02:05:29;15.83;;;10.87;;
52590;SDS011;38483;42.620;25.394;2022-10-23T02:07:57;18.60;;;10.87;;
52590;SDS011;38483;42.620;25.394;2022-10-23T02:10:30;16.90;;;10.57;;
52590;SDS011;38483;42.620;25.394;2022-10-23T02:15:40;15.37;;;10.17;;
52590;SDS011;38483;42.620;25.394;2022-10-23T02:20:54;16.47;;;10.80;;
52590;SDS011;38483;42.620;25.394;2022-10-23T02:23:33;14.33;;;9.47;;
52590;SDS011;38483;42.620;25.394;2022-10-23T02:28:51;16.27;;;10.10;;
52590;SDS011;38483;42.620;25.394;2022-10-23T02:31:24;16.80;;;9.43;;
52590;SDS011;38483;42.620;25.394;2022-10-23T02:33:52;15.40;;;9.27;;
52590;SDS011;38483;42.620;25.394;2022-10-23T02:36:19;13.73;;;9.17;;
52590;SDS011;38483;42.620;25.394;2022-10-23T02:38:46;13.40;;;9.43;;
52590;SDS011;38483;42.620;25.394;2022-10-23T02:44:30;14.30;;;9.23;;
52590;SDS011;38483;42.620;25.394;2022-10-23T02:47:13;19.07;;;10.00;;
52590;SDS011;38483;42.620;25.394;2022-10-23T02:55:16;16.67;;;9.87;;
52590;SDS011;38483;42.620;25.394;2022-10-23T03:00:31;13.50;;;8.87;;
52590;SDS011;38483;42.620;25.394;2022-10-23T03:03:03;13.07;;;8.50;;
52590;SDS011;38483;42.620;25.394;2022-10-23T03:05:38;15.37;;;8.70;;
52590;SDS011;38483;42.620;25.394;2022-10-23T03:08:08;13.50;;;8.20;;
52590;SDS011;38483;42.620;25.394;2022-10-23T03:10:36;12.43;;;8.73;;
52590;SDS011;38483;42.620;25.394;2022-10-23T03:13:05;15.93;;;8.30;;
52590;SDS011;38483;42.620;25.394;2022-10-23T03:15:39;13.60;;;8.50;;
52590;SDS011;38483;42.620;25.394;2022-10-23T03:18:10;13.50;;;8.40;;
52590;SDS011;38483;42.620;25.394;2022-10-23T03:20:44;15.57;;;7.87;;
52590;SDS011;38483;42.620;25.394;2022-10-23T03:23:13;13.97;;;8.00;;
52590;SDS011;38483;42.620;25.394;2022-10-23T03:25:41;14.07;;;8.07;;
52590;SDS011;38483;42.620;25.394;2022-10-23T03:28:19;13.47;;;9.03;;
52590;SDS011;38483;42.620;25.394;2022-10-23T03:30:46;12.97;;;8.30;;
52590;SDS011;38483;42.620;25.394;2022-10-23T03:33:13;16.93;;;8.47;;
52590;SDS011;38483;42.620;25.394;2022-10-23T03:35:40;14.77;;;8.47;;
52590;SDS011;38483;42.620;25.394;2022-10-23T03:38:07;11.57;;;8.00;;
52590;SDS011;38483;42.620;25.394;2022-10-23T03:40:34;11.07;;;7.60;;
52590;SDS011;38483;42.620;25.394;2022-10-23T03:43:01;12.47;;;6.87;;
52590;SDS011;38483;42.620;25.394;2022-10-23T03:45:28;17.60;;;8.67;;
52590;SDS011;38483;42.620;25.394;2022-10-23T03:47:56;10.03;;;6.50;;
52590;SDS011;38483;42.620;25.394;2022-10-23T03:50:24;14.73;;;7.57;;
52590;SDS011;38483;42.620;25.394;2022-10-23T03:52:52;12.70;;;7.73;;
52590;SDS011;38483;42.620;25.394;2022-10-23T03:55:19;15.73;;;8.67;;
52590;SDS011;38483;42.620;25.394;2022-10-23T03:57:46;10.67;;;6.93;;
52590;SDS011;38483;42.620;25.394;2022-10-23T04:00:13;13.50;;;8.30;;
52590;SDS011;38483;42.620;25.394;2022-10-23T04:02:45;12.30;;;9.47;;
52590;SDS011;38483;42.620;25.394;2022-10-23T04:05:13;16.90;;;8.77;;
52590;SDS011;38483;42.620;25.394;2022-10-23T04:07:49;14.53;;;8.23;;
52590;SDS011;38483;42.620;25.394;2022-10-23T04:10:16;10.90;;;7.60;;
52590;SDS011;38483;42.620;25.394;2022-10-23T04:12:44;10.47;;;7.17;;
52590;SDS011;38483;42.620;25.394;2022-10-23T04:15:11;10.80;;;7.17;;
52590;SDS011;38483;42.620;25.394;2022-10-23T04:17:41;12.27;;;7.80;;
52590;SDS011;38483;42.620;25.394;2022-10-23T04:20:09;10.60;;;7.47;;
52590;SDS011;38483;42.620;25.394;2022-10-23T04:22:36;13.23;;;8.00;;
52590;SDS011;38483;42.620;25.394;2022-10-23T04:25:03;14.90;;;7.57;;
52590;SDS011;38483;42.620;25.394;2022-10-23T04:27:32;14.47;;;8.53;;
52590;SDS011;38483;42.620;25.394;2022-10-23T04:30:00;16.47;;;9.13;;
52590;SDS011;38483;42.620;25.394;2022-10-23T04:32:30;13.93;;;7.17;;
52590;SDS011;38483;42.620;25.394;2022-10-23T04:34:57;20.97;;;8.73;;
52590;SDS011;38483;42.620;25.394;2022-10-23T04:37:24;12.77;;;8.43;;
52590;SDS011;38483;42.620;25.394;2022-10-23T04:39:52;10.23;;;6.13;;
52590;SDS011;38483;42.620;25.394;2022-10-23T04:42:19;11.40;;;6.90;;
52590;SDS011;38483;42.620;25.394;2022-10-23T04:44:46;12.23;;;6.83;;
52590;SDS011;38483;42.620;25.394;2022-10-23T04:47:13;11.77;;;6.53;;
52590;SDS011;38483;42.620;25.394;2022-10-23T04:49:55;11.63;;;5.27;;
52590;SDS011;38483;42.620;25.394;2022-10-23T04:52:55;9.17;;;4.37;;
52590;SDS011;38483;42.620;25.394;2022-10-23T04:55:55;13.57;;;4.43;;
52590;SDS011;38483;42.620;25.394;2022-10-23T04:58:33;12.83;;;4.43;;
52590;SDS011;38483;42.620;25.394;2022-10-23T05:01:01;11.20;;;4.67;;
52590;SDS011;38483;42.620;25.394;2022-10-23T05:03:28;9.87;;;4.67;;
52590;SDS011;38483;42.620;25.394;2022-10-23T05:05:55;11.80;;;5.70;;
52590;SDS011;38483;42.620;25.394;2022-10-23T05:08:29;13.73;;;5.33;;
52590;SDS011;38483;42.620;25.394;2022-10-23T05:11:15;10.57;;;5.13;;
52590;SDS011;38483;42.620;25.394;2022-10-23T05:13:45;9.73;;;5.53;;
52590;SDS011;38483;42.620;25.394;2022-10-23T05:16:19;13.77;;;4.53;;
52590;SDS011;38483;42.620;25.394;2022-10-23T05:19:02;10.73;;;4.77;;
52590;SDS011;38483;42.620;25.394;2022-10-23T05:21:31;10.73;;;5.47;;
52590;SDS011;38483;42.620;25.394;2022-10-23T05:24:04;9.27;;;4.33;;
52590;SDS011;38483;42.620;25.394;2022-10-23T05:26:31;13.77;;;4.70;;
52590;SDS011;38483;42.620;25.394;2022-10-23T05:29:04;13.13;;;4.63;;
52590;SDS011;38483;42.620;25.394;2022-10-23T05:31:32;9.57;;;4.40;;
52590;SDS011;38483;42.620;25.394;2022-10-23T05:34:07;12.00;;;4.70;;
52590;SDS011;38483;42.620;25.394;2022-10-23T05:36:43;9.10;;;4.50;;
52590;SDS011;38483;42.620;25.394;2022-10-23T05:39:12;8.27;;;4.13;;
52590;SDS011;38483;42.620;25.394;2022-10-23T05:41:43;10.93;;;4.43;;
52590;SDS011;38483;42.620;25.394;2022-10-23T05:44:20;10.20;;;4.37;;
52590;SDS011;38483;42.620;25.394;2022-10-23T05:47:06;9.47;;;4.43;;
52590;SDS011;38483;42.620;25.394;2022-10-23T05:49:52;9.67;;;4.60;;
52590;SDS011;38483;42.620;25.394;2022-10-23T05:52:48;7.53;;;4.73;;
52590;SDS011;38483;42.620;25.394;2022-10-23T05:55:47;8.10;;;3.93;;
52590;SDS011;38483;42.620;25.394;2022-10-23T05:58:29;8.10;;;3.70;;
52590;SDS011;38483;42.620;25.394;2022-10-23T06:01:11;13.53;;;3.80;;
52590;SDS011;38483;42.620;25.394;2022-10-23T06:04:02;6.70;;;3.13;;
52590;SDS011;38483;42.620;25.394;2022-10-23T06:06:56;8.10;;;4.10;;
52590;SDS011;38483;42.620;25.394;2022-10-23T06:09:24;7.17;;;3.77;;
52590;SDS011;38483;42.620;25.394;2022-10-23T06:11:55;8.53;;;3.43;;
52590;SDS011;38483;42.620;25.394;2022-10-23T06:14:22;7.67;;;4.03;;
52590;SDS011;38483;42.620;25.394;2022-10-23T06:16:50;8.03;;;3.33;;
52590;SDS011;38483;42.620;25.394;2022-10-23T06:19:18;7.67;;;3.40;;
52590;SDS011;38483;42.620;25.394;2022-10-23T06:21:50;8.40;;;3.70;;
52590;SDS011;38483;42.620;25.394;2022-10-23T06:24:17;7.03;;;3.23;;
52590;SDS011;38483;42.620;25.394;2022-10-23T06:26:53;12.30;;;3.57;;
52590;SDS011;38483;42.620;25.394;2022-10-23T06:29:40;7.07;;;3.30;;
52590;SDS011;38483;42.620;25.394;2022-10-23T06:32:07;7.17;;;3.00;;
52590;SDS011;38483;42.620;25.394;2022-10-23T06:34:35;5.30;;;3.77;;
52590;SDS011;38483;42.620;25.394;2022-10-23T06:37:03;8.40;;;3.53;;
52590;SDS011;38483;42.620;25.394;2022-10-23T06:39:48;6.23;;;3.17;;
52590;SDS011;38483;42.620;25.394;2022-10-23T06:42:18;4.37;;;2.93;;
52590;SDS011;38483;42.620;25.394;2022-10-23T06:44:54;4.90;;;2.90;;
52590;SDS011;38483;42.620;25.394;2022-10-23T06:47:42;5.07;;;3.00;;
52590;SDS011;38483;42.620;25.394;2022-10-23T06:50:47;4.70;;;2.77;;
52590;SDS011;38483;42.620;25.394;2022-10-23T06:53:20;4.50;;;3.33;;
52590;SDS011;38483;42.620;25.394;2022-10-23T06:55:59;4.10;;;3.10;;
52590;SDS011;38483;42.620;25.394;2022-10-23T06:58:27;3.50;;;2.50;;
52590;SDS011;38483;42.620;25.394;2022-10-23T07:01:02;6.60;;;2.60;;
52590;SDS011;38483;42.620;25.394;2022-10-23T07:03:33;5.93;;;2.97;;
52590;SDS011;38483;42.620;25.394;2022-10-23T07:06:04;3.37;;;2.20;;
52590;SDS011;38483;42.620;25.394;2022-10-23T07:08:34;4.50;;;2.40;;
52590;SDS011;38483;42.620;25.394;2022-10-23T07:11:11;9.33;;;2.67;;
52590;SDS011;38483;42.620;25.394;2022-10-23T07:13:38;3.67;;;2.07;;
52590;SDS011;38483;42.620;25.394;2022-10-23T07:16:14;2.00;;;1.77;;
52590;SDS011;38483;42.620;25.394;2022-10-23T07:18:43;3.53;;;2.00;;
52590;SDS011;38483;42.620;25.394;2022-10-23T07:21:38;2.57;;;2.03;;
52590;SDS011;38483;42.620;25.394;2022-10-23T07:24:31;3.33;;;2.00;;
52590;SDS011;38483;42.620;25.394;2022-10-23T07:27:11;5.60;;;2.27;;
52590;SDS011;38483;42.620;25.394;2022-10-23T07:29:42;4.87;;;2.03;;
52590;SDS011;38483;42.620;25.394;2022-10-23T07:32:10;3.37;;;1.70;;
52590;SDS011;38483;42.620;25.394;2022-10-23T07:34:57;3.47;;;2.20;;
52590;SDS011;38483;42.620;25.394;2022-10-23T07:37:29;6.57;;;2.00;;
52590;SDS011;38483;42.620;25.394;2022-10-23T07:39:59;4.37;;;2.00;;
52590;SDS011;38483;42.620;25.394;2022-10-23T07:42:26;3.67;;;1.77;;
52590;SDS011;38483;42.620;25.394;2022-10-23T07:44:53;3.50;;;2.10;;
52590;SDS011;38483;42.620;25.394;2022-10-23T07:47:21;3.00;;;1.70;;
52590;SDS011;38483;42.620;25.394;2022-10-23T07:49:50;2.23;;;1.53;;
52590;SDS011;38483;42.620;25.394;2022-10-23T07:52:18;8.10;;;2.27;;
52590;SDS011;38483;42.620;25.394;2022-10-23T07:55:08;4.50;;;1.53;;
52590;SDS011;38483;42.620;25.394;2022-10-23T07:57:39;2.93;;;1.50;;
52590;SDS011;38483;42.620;25.394;2022-10-23T08:00:19;3.57;;;1.60;;
52590;SDS011;38483;42.620;25.394;2022-10-23T08:02:55;7.47;;;1.70;;
52590;SDS011;38483;42.620;25.394;2022-10-23T08:05:22;1.50;;;1.40;;
52590;SDS011;38483;42.620;25.394;2022-10-23T08:07:55;3.10;;;1.30;;
52590;SDS011;38483;42.620;25.394;2022-10-23T08:10:23;6.13;;;1.40;;
52590;SDS011;38483;42.620;25.394;2022-10-23T08:12:51;4.67;;;1.23;;
52590;SDS011;38483;42.620;25.394;2022-10-23T08:15:24;3.20;;;1.23;;
52590;SDS011;38483;42.620;25.394;2022-10-23T08:17:56;3.53;;;1.33;;
52590;SDS011;38483;42.620;25.394;2022-10-23T08:20:45;4.57;;;1.27;;
52590;SDS011;38483;42.620;25.394;2022-10-23T08:23:15;7.47;;;1.67;;
52590;SDS011;38483;42.620;25.394;2022-10-23T08:25:44;4.07;;;1.27;;
52590;SDS011;38483;42.620;25.394;2022-10-23T08:28:16;1.20;;;0.90;;
52590;SDS011;38483;42.620;25.394;2022-10-23T08:30:52;3.37;;;1.10;;
52590;SDS011;38483;42.620;25.394;2022-10-23T08:33:21;5.70;;;1.10;;
52590;SDS011;38483;42.620;25.394;2022-10-23T08:35:49;4.03;;;1.23;;
52590;SDS011;38483;42.620;25.394;2022-10-23T08:38:28;2.63;;;1.10;;
52590;SDS011;38483;42.620;25.394;2022-10-23T08:40:56;4.97;;;1.20;;
52590;SDS011;38483;42.620;25.394;2022-10-23T08:43:45;5.43;;;1.20;;
52590;SDS011;38483;42.620;25.394;2022-10-23T08:46:30;3.23;;;1.30;;
52590;SDS011;38483;42.620;25.394;2022-10-23T08:52:25;1.33;;;0.90;;
52590;SDS011;38483;42.620;25.394;2022-10-23T09:04:11;10.43;;;1.60;;
52590;SDS011;38483;42.620;25.394;2022-10-23T09:12:28;4.20;;;0.97;;
52590;SDS011;38483;42.620;25.394;2022-10-23T09:15:03;1.27;;;0.70;;
52590;SDS011;38483;42.620;25.394;2022-10-23T09:17:57;1.87;;;0.77;;
52590;SDS011;38483;42.620;25.394;2022-10-23T09:20:30;2.40;;;1.10;;
52590;SDS011;38483;42.620;25.394;2022-10-23T09:23:22;5.27;;;1.00;;
52590;SDS011;38483;42.620;25.394;2022-10-23T09:25:50;5.37;;;1.20;;
52590;SDS011;38483;42.620;25.394;2022-10-23T09:28:24;2.30;;;1.13;;
52590;SDS011;38483;42.620;25.394;2022-10-23T09:31:10;4.00;;;1.63;;
52590;SDS011;38483;42.620;25.394;2022-10-23T09:33:39;1.97;;;0.90;;
52590;SDS011;38483;42.620;25.394;2022-10-23T09:44:01;3.10;;;1.50;;
52590;SDS011;38483;42.620;25.394;2022-10-23T09:46:49;3.60;;;1.20;;
52590;SDS011;38483;42.620;25.394;2022-10-23T09:49:20;3.20;;;1.17;;
52590;SDS011;38483;42.620;25.394;2022-10-23T09:54:31;1.67;;;1.23;;
52590;SDS011;38483;42.620;25.394;2022-10-23T09:59:49;1.50;;;1.40;;
52590;SDS011;38483;42.620;25.394;2022-10-23T10:02:20;1.83;;;1.37;;
52590;SDS011;38483;42.620;25.394;2022-10-23T10:05:22;3.83;;;1.10;;
52590;SDS011;38483;42.620;25.394;2022-10-23T10:11:05;2.40;;;1.30;;
52590;SDS011;38483;42.620;25.394;2022-10-23T10:13:46;2.63;;;1.40;;
52590;SDS011;38483;42.620;25.394;2022-10-23T10:25:16;4.47;;;1.77;;
52590;SDS011;38483;42.620;25.394;2022-10-23T10:33:34;3.03;;;1.50;;
52590;SDS011;38483;42.620;25.394;2022-10-23T10:41:32;1.83;;;1.40;;
52590;SDS011;38483;42.620;25.394;2022-10-23T10:44:16;1.80;;;1.30;;
52590;SDS011;38483;42.620;25.394;2022-10-23T10:46:57;1.17;;;1.07;;
52590;SDS011;38483;42.620;25.394;2022-10-23T10:56:00;11.40;;;1.60;;
52590;SDS011;38483;42.620;25.394;2022-10-23T11:01:31;2.63;;;1.27;;
52590;SDS011;38483;42.620;25.394;2022-10-23T11:07:12;5.20;;;1.20;;
52590;SDS011;38483;42.620;25.394;2022-10-23T11:09:42;2.70;;;1.47;;
52590;SDS011;38483;42.620;25.394;2022-10-23T11:12:19;4.83;;;1.60;;
52590;SDS011;38483;42.620;25.394;2022-10-23T11:14:49;3.50;;;1.40;;
52590;SDS011;38483;42.620;25.394;2022-10-23T11:19:58;2.37;;;1.33;;
52590;SDS011;38483;42.620;25.394;2022-10-23T11:25:45;5.43;;;1.63;;
52590;SDS011;38483;42.620;25.394;2022-10-23T11:28:22;5.27;;;1.70;;
52590;SDS011;38483;42.620;25.394;2022-10-23T11:36:53;4.97;;;1.40;;
52590;SDS011;38483;42.620;25.394;2022-10-23T11:39:23;1.90;;;1.10;;
52590;SDS011;38483;42.620;25.394;2022-10-23T11:42:11;5.70;;;1.63;;
52590;SDS011;38483;42.620;25.394;2022-10-23T11:44:42;3.17;;;1.60;;
52590;SDS011;38483;42.620;25.394;2022-10-23T11:52:33;3.53;;;1.40;;
52590;SDS011;38483;42.620;25.394;2022-10-23T11:55:19;1.90;;;1.00;;
52590;SDS011;38483;42.620;25.394;2022-10-23T12:00:39;2.83;;;1.40;;
52590;SDS011;38483;42.620;25.394;2022-10-23T12:03:19;3.80;;;1.20;;
52590;SDS011;38483;42.620;25.394;2022-10-23T12:06:13;2.57;;;1.10;;
52590;SDS011;38483;42.620;25.394;2022-10-23T12:09:00;6.70;;;1.97;;
52590;SDS011;38483;42.620;25.394;2022-10-23T12:11:49;4.17;;;1.30;;
52590;SDS011;38483;42.620;25.394;2022-10-23T12:14:28;2.33;;;1.53;;
52590;SDS011;38483;42.620;25.394;2022-10-23T12:16:57;3.93;;;1.37;;
52590;SDS011;38483;42.620;25.394;2022-10-23T12:19:26;3.97;;;1.40;;
52590;SDS011;38483;42.620;25.394;2022-10-23T12:21:57;4.03;;;1.40;;
52590;SDS011;38483;42.620;25.394;2022-10-23T12:24:45;3.07;;;1.60;;
52590;SDS011;38483;42.620;25.394;2022-10-23T12:35:42;4.40;;;1.63;;
52590;SDS011;38483;42.620;25.394;2022-10-23T12:38:30;1.67;;;1.50;;
52590;SDS011;38483;42.620;25.394;2022-10-23T12:41:09;1.50;;;1.40;;
52590;SDS011;38483;42.620;25.394;2022-10-23T12:43:41;3.87;;;1.73;;
52590;SDS011;38483;42.620;25.394;2022-10-23T12:46:32;5.37;;;1.70;;
52590;SDS011;38483;42.620;25.394;2022-10-23T12:49:17;6.00;;;1.60;;
52590;SDS011;38483;42.620;25.394;2022-10-23T12:52:02;3.13;;;1.30;;
52590;SDS011;38483;42.620;25.394;2022-10-23T12:54:31;2.03;;;1.37;;
52590;SDS011;38483;42.620;25.394;2022-10-23T12:57:20;3.93;;;1.70;;
52590;SDS011;38483;42.620;25.394;2022-10-23T13:00:03;2.00;;;1.80;;
52590;SDS011;38483;42.620;25.394;2022-10-23T13:02:38;2.73;;;1.73;;
52590;SDS011;38483;42.620;25.394;2022-10-23T13:05:07;2.33;;;1.70;;
52590;SDS011;38483;42.620;25.394;2022-10-23T13:07:43;1.73;;;1.60;;
52590;SDS011;38483;42.620;25.394;2022-10-23T13:10:14;2.73;;;1.70;;
52590;SDS011;38483;42.620;25.394;2022-10-23T13:12:54;1.70;;;1.50;;
52590;SDS011;38483;42.620;25.394;2022-10-23T13:15:46;3.40;;;1.77;;
52590;SDS011;38483;42.620;25.394;2022-10-23T13:18:13;1.70;;;1.60;;
52590;SDS011;38483;42.620;25.394;2022-10-23T13:21:08;2.40;;;1.70;;
52590;SDS011;38483;42.620;25.394;2022-10-23T13:25:59;1.97;;;1.80;;
52590;SDS011;38483;42.620;25.394;2022-10-23T13:28:31;1.50;;;1.40;;
52590;SDS011;38483;42.620;25.394;2022-10-23T13:31:24;2.13;;;1.60;;
52590;SDS011;38483;42.620;25.394;2022-10-23T13:34:03;1.90;;;1.60;;
52590;SDS011;38483;42.620;25.394;2022-10-23T13:36:35;2.43;;;1.70;;
52590;SDS011;38483;42.620;25.394;2022-10-23T13:39:24;2.10;;;1.77;;
52590;SDS011;38483;42.620;25.394;2022-10-23T13:41:53;3.10;;;1.80;;
52590;SDS011;38483;42.620;25.394;2022-10-23T13:44:22;5.10;;;1.93;;
52590;SDS011;38483;42.620;25.394;2022-10-23T13:46:56;1.70;;;1.60;;
52590;SDS011;38483;42.620;25.394;2022-10-23T13:49:32;2.10;;;1.70;;
52590;SDS011;38483;42.620;25.394;2022-10-23T13:52:00;2.10;;;1.70;;
52590;SDS011;38483;42.620;25.394;2022-10-23T13:54:27;2.00;;;1.80;;
52590;SDS011;38483;42.620;25.394;2022-10-23T13:56:55;2.10;;;1.70;;
52590;SDS011;38483;42.620;25.394;2022-10-23T13:59:24;2.83;;;1.60;;
52590;SDS011;38483;42.620;25.394;2022-10-23T14:01:51;5.50;;;1.63;;
52590;SDS011;38483;42.620;25.394;2022-10-23T14:04:20;2.33;;;1.70;;
52590;SDS011;38483;42.620;25.394;2022-10-23T14:06:47;3.87;;;2.30;;
52590;SDS011;38483;42.620;25.394;2022-10-23T14:09:15;2.43;;;1.70;;
52590;SDS011;38483;42.620;25.394;2022-10-23T14:11:44;2.20;;;2.00;;
52590;SDS011;38483;42.620;25.394;2022-10-23T14:14:11;5.07;;;1.70;;
52590;SDS011;38483;42.620;25.394;2022-10-23T14:16:39;2.80;;;1.70;;
52590;SDS011;38483;42.620;25.394;2022-10-23T14:19:06;4.50;;;1.80;;
52590;SDS011;38483;42.620;25.394;2022-10-23T14:21:34;2.10;;;1.90;;
52590;SDS011;38483;42.620;25.394;2022-10-23T14:24:02;2.73;;;1.80;;
52590;SDS011;38483;42.620;25.394;2022-10-23T14:26:30;2.00;;;1.80;;
52590;SDS011;38483;42.620;25.394;2022-10-23T14:28:58;2.30;;;2.10;;
52590;SDS011;38483;42.620;25.394;2022-10-23T14:31:33;1.70;;;1.60;;
52590;SDS011;38483;42.620;25.394;2022-10-23T14:34:00;4.03;;;1.80;;
52590;SDS011;38483;42.620;25.394;2022-10-23T14:36:27;3.37;;;2.10;;
52590;SDS011;38483;42.620;25.394;2022-10-23T14:39:15;2.60;;;1.77;;
52590;SDS011;38483;42.620;25.394;2022-10-23T14:41:43;4.97;;;2.13;;
52590;SDS011;38483;42.620;25.394;2022-10-23T14:44:10;1.47;;;1.37;;
52590;SDS011;38483;42.620;25.394;2022-10-23T14:46:37;3.53;;;2.00;;
52590;SDS011;38483;42.620;25.394;2022-10-23T14:49:04;2.23;;;2.00;;
52590;SDS011;38483;42.620;25.394;2022-10-23T14:51:31;2.70;;;2.00;;
52590;SDS011;38483;42.620;25.394;2022-10-23T14:53:59;2.90;;;1.77;;
52590;SDS011;38483;42.620;25.394;2022-10-23T14:56:33;5.47;;;1.90;;
52590;SDS011;38483;42.620;25.394;2022-10-23T14:59:06;1.90;;;1.60;;
52590;SDS011;38483;42.620;25.394;2022-10-23T15:01:37;2.93;;;2.10;;
52590;SDS011;38483;42.620;25.394;2022-10-23T15:04:13;2.20;;;1.87;;
52590;SDS011;38483;42.620;25.394;2022-10-23T15:06:40;2.47;;;2.07;;
52590;SDS011;38483;42.620;25.394;2022-10-23T15:09:09;3.40;;;2.00;;
52590;SDS011;38483;42.620;25.394;2022-10-23T15:11:36;2.47;;;1.87;;
52590;SDS011;38483;42.620;25.394;2022-10-23T15:14:06;2.83;;;1.80;;
52590;SDS011;38483;42.620;25.394;2022-10-23T15:16:33;2.40;;;1.80;;
52590;SDS011;38483;42.620;25.394;2022-10-23T15:19:10;3.17;;;1.73;;
52590;SDS011;38483;42.620;25.394;2022-10-23T15:21:44;1.87;;;1.73;;
52590;SDS011;38483;42.620;25.394;2022-10-23T15:24:14;2.27;;;1.70;;
52590;SDS011;38483;42.620;25.394;2022-10-23T15:26:45;5.43;;;1.83;;
52590;SDS011;38483;42.620;25.394;2022-10-23T15:29:12;1.60;;;1.50;;
52590;SDS011;38483;42.620;25.394;2022-10-23T15:31:41;2.40;;;2.00;;
52590;SDS011;38483;42.620;25.394;2022-10-23T15:34:09;1.90;;;1.80;;
52590;SDS011;38483;42.620;25.394;2022-10-23T15:36:48;2.30;;;1.60;;
52590;SDS011;38483;42.620;25.394;2022-10-23T15:39:18;2.73;;;2.03;;
52590;SDS011;38483;42.620;25.394;2022-10-23T15:41:49;3.67;;;1.60;;
52590;SDS011;38483;42.620;25.394;2022-10-23T15:44:18;2.33;;;1.90;;
52590;SDS011;38483;42.620;25.394;2022-10-23T15:46:48;4.77;;;2.03;;
52590;SDS011;38483;42.620;25.394;2022-10-23T15:49:20;2.07;;;1.60;;
52590;SDS011;38483;42.620;25.394;2022-10-23T15:51:47;1.70;;;1.60;;
52590;SDS011;38483;42.620;25.394;2022-10-23T15:54:16;1.90;;;1.57;;
52590;SDS011;38483;42.620;25.394;2022-10-23T15:56:48;3.73;;;2.30;;
52590;SDS011;38483;42.620;25.394;2022-10-23T15:59:17;2.47;;;2.13;;
52590;SDS011;38483;42.620;25.394;2022-10-23T16:01:46;2.67;;;2.43;;
52590;SDS011;38483;42.620;25.394;2022-10-23T16:04:15;2.30;;;2.10;;
52590;SDS011;38483;42.620;25.394;2022-10-23T16:06:43;2.57;;;1.70;;
52590;SDS011;38483;42.620;25.394;2022-10-23T16:09:11;1.90;;;1.70;;
52590;SDS011;38483;42.620;25.394;2022-10-23T16:11:39;2.10;;;1.90;;
52590;SDS011;38483;42.620;25.394;2022-10-23T16:14:10;2.30;;;2.00;;
52590;SDS011;38483;42.620;25.394;2022-10-23T16:16:40;2.27;;;1.90;;
52590;SDS011;38483;42.620;25.394;2022-10-23T16:19:08;2.20;;;2.00;;
52590;SDS011;38483;42.620;25.394;2022-10-23T16:21:35;2.00;;;1.90;;
52590;SDS011;38483;42.620;25.394;2022-10-23T16:24:04;2.80;;;2.10;;
52590;SDS011;38483;42.620;25.394;2022-10-23T16:26:34;4.17;;;2.00;;
52590;SDS011;38483;42.620;25.394;2022-10-23T16:29:04;4.17;;;2.10;;
52590;SDS011;38483;42.620;25.394;2022-10-23T16:31:33;2.40;;;1.70;;
52590;SDS011;38483;42.620;25.394;2022-10-23T16:34:01;3.70;;;2.20;;
52590;SDS011;38483;42.620;25.394;2022-10-23T16:36:30;6.40;;;2.17;;
52590;SDS011;38483;42.620;25.394;2022-10-23T16:39:19;3.40;;;2.23;;
52590;SDS011;38483;42.620;25.394;2022-10-23T16:42:07;3.23;;;2.23;;
52590;SDS011;38483;42.620;25.394;2022-10-23T16:45:07;1.70;;;1.60;;
52590;SDS011;38483;42.620;25.394;2022-10-23T16:47:34;2.40;;;1.80;;
52590;SDS011;38483;42.620;25.394;2022-10-23T16:50:02;2.63;;;1.80;;
52590;SDS011;38483;42.620;25.394;2022-10-23T16:52:33;1.80;;;1.70;;
52590;SDS011;38483;42.620;25.394;2022-10-23T16:55:00;3.07;;;1.90;;
52590;SDS011;38483;42.620;25.394;2022-10-23T16:57:28;2.03;;;1.83;;
52590;SDS011;38483;42.620;25.394;2022-10-23T16:59:57;2.30;;;1.90;;
52590;SDS011;38483;42.620;25.394;2022-10-23T17:02:24;1.97;;;1.67;;
52590;SDS011;38483;42.620;25.394;2022-10-23T17:04:53;2.57;;;1.70;;
52590;SDS011;38483;42.620;25.394;2022-10-23T17:07:21;3.90;;;1.90;;
52590;SDS011;38483;42.620;25.394;2022-10-23T17:09:49;2.10;;;1.90;;
52590;SDS011;38483;42.620;25.394;2022-10-23T17:12:17;2.50;;;1.70;;
52590;SDS011;38483;42.620;25.394;2022-10-23T17:14:47;3.77;;;2.00;;
52590;SDS011;38483;42.620;25.394;2022-10-23T17:17:14;3.27;;;1.90;;
52590;SDS011;38483;42.620;25.394;2022-10-23T17:19:42;6.53;;;1.93;;
52590;SDS011;38483;42.620;25.394;2022-10-23T17:22:12;1.80;;;1.60;;